Flight Track Log - Related Links

Times and Time Zones

All times are in EDT time to prevent confusion due to time zone crossing. See the N580EE flight status page for this flight to view local times or setup timezone preferences in your user account.

Time Position Orientation Groundspeed Altitude Reporting Facility
EDT Latitude Longitude Course Direction KTS MPH feet Rate Location/Type
Mon 12:38:53 PM 47.5167 -111.8500 263° West 440 506 34,000  Level Edmonton Center
Mon 12:39:53 PM 47.5000 -112.0500 263° West 440 506 34,000  Level Edmonton Center
Mon 12:40:53 PM 47.5000 -112.2167 270° West 430 495 34,000  Level Edmonton Center
Mon 12:41:53 PM 47.5167 -112.4000 278° West 430 495 34,000  Level Edmonton Center
Mon 12:42:53 PM 47.5000 -112.5667 262° West 430 495 34,000  Level Edmonton Center
Mon 12:43:53 PM 47.5000 -112.7500 270° West 420 483 34,000  Level Edmonton Center
Mon 12:44:53 PM 47.4833 -112.9167 262° West 430 495 34,000 -13,684 Level Edmonton Center
Mon 12:45:47 PM 50.9833 -114.0333 349° North 230 265 8,000 -12,211 Descending Edmonton Center
Mon 12:46:47 PM 50.9167 -114.0333 180° South 250 288 10,800 2,800 Climbing Edmonton Center
Mon 12:47:47 PM 50.8667 -114.0667 203° Southwest 250 288 13,600 2,700 Climbing Edmonton Center
Mon 12:48:47 PM 50.8000 -114.1333 212° Southwest 270 311 16,200 2,600 Climbing Edmonton Center
Mon 12:49:47 PM 50.7333 -114.2000 212° Southwest 290 334 18,800 1,400 Climbing Edmonton Center
Mon 12:50:47 PM 50.6500 -114.2667 207° Southwest 320 368 19,000 100 Climbing Edmonton Center
Mon 12:51:47 PM 50.5667 -114.3333 207° Southwest 340 391 19,000  Level Edmonton Center
Mon 12:52:47 PM 50.4833 -114.3833 201° Southwest 330 380 19,000  Level Edmonton Center
Mon 12:53:47 PM 50.4000 -114.4500 207° Southwest 310 357 19,000  Level Edmonton Center
Mon 12:54:47 PM 50.3167 -114.5167 207° Southwest 320 368 19,000  Level Edmonton Center
Mon 12:55:47 PM 50.2333 -114.5833 207° Southwest 330 380 19,000  Level Edmonton Center
Mon 12:56:47 PM 50.1500 -114.6167 194° South 330 380 19,000  Level Edmonton Center
Mon 12:57:47 PM 50.0667 -114.6500 194° South 320 368 19,000  Level Edmonton Center
Mon 12:58:47 PM 49.9833 -114.6500 180° South 310 357 19,000  Level Edmonton Center
Mon 12:59:47 PM 49.9000 -114.6833 194° South 310 357 19,000  Level Edmonton Center
Mon 01:00:47 PM 49.8000 -114.7000 186° South 310 357 19,000  Level Edmonton Center
Mon 01:01:47 PM 49.7167 -114.7000 180° South 310 357 19,000  Level Edmonton Center
Mon 01:02:47 PM 49.6333 -114.7167 187° South 320 368 19,000  Level Edmonton Center
Mon 01:03:47 PM 49.5333 -114.7167 180° South 320 368 19,000  Level Edmonton Center
Mon 01:04:47 PM 49.4500 -114.7000 173° South 330 380 19,000  Level Edmonton Center
Mon 01:05:47 PM 49.3667 -114.6500 159° South 330 380 19,000  Level Edmonton Center
Mon 01:06:47 PM 49.2667 -114.6333 174° South 340 391 19,000  Level Edmonton Center
Mon 01:07:47 PM 49.1667 -114.5833 162° South 340 391 19,000  Level Edmonton Center
Mon 01:08:47 PM 49.0667 -114.5667 174° South 350 403 19,000 -500 Level Edmonton Center
Mon 01:09:47 PM 49.0000 -114.5167 154° Southeast 330 380 18,000 -1,300 Descending Edmonton Center
Mon 01:10:47 PM 48.9000 -114.4667 162° South 330 380 16,400 -1,500 Descending Edmonton Center
Mon 01:11:47 PM 48.8333 -114.4667 180° South 310 357 15,000 -1,905 Descending Edmonton Center
Mon 01:13:15 PM 48.7447 -114.3883 150° Southeast 297 342 11,700 -1,907 Descending Salt Lake Center
Mon 01:14:18 PM 48.6642 -114.3597 167° South 297 342 10,200 -816 Descending Salt Lake Center
Mon 01:15:20 PM 48.5864 -114.3386 170° South 292 336 10,000 -290 Descending Salt Lake Center
Mon 01:16:22 PM 48.5169 -114.3178 169° South 275 316 9,600 -194 Descending Salt Lake Center
Mon 01:17:24 PM 48.4419 -114.2953 169° South 248 285 9,600 -823 Level Salt Lake Center
Mon 01:18:26 PM 48.4125 -114.2389 128° Southeast 237 273 7,900 -1,694 Descending Salt Lake Center
Mon 01:19:28 PM 48.4019 -114.1686 103° East 214 246 6,100 -1,694 Descending Salt Lake Center
Mon 01:20:30 PM 48.3667 -114.1961 207° Southwest 170 196 4,400 -1,355 Descending Salt Lake Center
Mon 01:21:32 PM 48.3322 -114.2328 215° Southwest 157 181 3,300 -1,065 Descending Salt Lake Center

Login

Don't have an account? Register now (free) for customized features, flight alerts, and more!